Time;durP1;ratioP1;P1;durP2;ratioP2;P2;SDS_P1;SDS_P2;PMS_P1;PMS_P2;Temp;Humidity;BMP_temperature;BMP_pressure;BME280_temperature;BME280_humidity;BME280_pressure;Samples;Min_cycle;Max_cycle;Signal;HPM_P1;HPM_P2
2023/03/22 00:01:59;;;;;;;58.05;23.15;;;;;;;9.73;100.00;100196.69;5029681;28;20036;-67
2023/03/22 00:04:25;;;;;;;57.90;24.48;;;;;;;9.76;100.00;100190.91;5047621;28;20030;-67
2023/03/22 00:06:50;;;;;;;63.35;24.08;;;;;;;9.77;100.00;100181.81;5047146;28;20032;-66
2023/03/22 00:09:17;;;;;;;57.72;23.45;;;;;;;9.67;100.00;100169.81;5047450;28;20029;-67
2023/03/22 00:11:42;;;;;;;62.22;25.13;;;;;;;9.80;100.00;100184.09;5029221;28;20029;-67
2023/03/22 00:14:07;;;;;;;62.28;24.83;;;;;;;9.84;100.00;100190.69;5029288;28;20021;-67
2023/03/22 00:16:33;;;;;;;60.97;25.50;;;;;;;9.83;100.00;100188.19;5028840;28;20481;-67
2023/03/22 00:18:58;;;;;;;60.88;26.67;;;;;;;9.81;100.00;100179.53;5024723;28;20107;-67
2023/03/22 00:21:24;;;;;;;68.57;26.75;;;;;;;9.81;100.00;100175.00;5024877;28;20116;-67
2023/03/22 00:23:49;;;;;;;68.15;26.75;;;;;;;9.73;100.00;100164.44;5033420;28;20054;-67
2023/03/22 00:26:15;;;;;;;72.53;26.83;;;;;;;9.82;100.00;100179.31;5043613;28;20559;-67
2023/03/22 00:28:41;;;;;;;62.33;26.73;;;;;;;9.78;100.00;100177.28;5040771;28;20097;-67
2023/03/22 00:31:08;;;;;;;66.70;26.88;;;;;;;9.75;100.00;100169.63;5042519;28;20021;-67
2023/03/22 00:33:34;;;;;;;68.35;26.88;;;;;;;9.56;100.00;100147.13;5041809;28;20063;-66
2023/03/22 00:36:06;;;;;;;67.55;27.05;;;;;;;9.82;100.00;100165.88;5037941;28;20150;-67
2023/03/22 00:38:37;;;;;;;66.88;27.88;;;;;;;9.79;100.00;100162.78;5037604;28;20037;-67
2023/03/22 00:41:22;;;;;;;73.45;28.95;;;;;;;9.82;100.00;100160.50;5037815;28;20044;-67
2023/03/22 00:43:49;;;;;;;76.00;30.60;;;;;;;9.76;100.00;100153.28;5036869;28;20039;-67
2023/03/22 00:46:18;;;;;;;95.80;33.53;;;;;;;9.78;100.00;100153.91;5037978;28;20041;-67
2023/03/22 00:48:43;;;;;;;85.25;31.58;;;;;;;9.82;100.00;100144.38;5020138;28;20028;-67
2023/03/22 00:51:09;;;;;;;89.97;32.65;;;;;;;9.77;100.00;100144.22;5020925;28;20037;-66
2023/03/22 00:53:35;;;;;;;79.13;30.45;;;;;;;9.83;100.00;100147.91;5019915;28;20033;-67
2023/03/22 00:56:02;;;;;;;80.32;30.13;;;;;;;9.83;100.00;100142.53;5038025;28;20036;-66
2023/03/22 00:58:28;;;;;;;77.43;30.48;;;;;;;9.82;100.00;100133.63;5038218;28;20100;-67
2023/03/22 01:00:53;;;;;;;74.00;28.92;;;;;;;9.88;100.00;100135.50;5035824;28;20086;-67
2023/03/22 01:03:20;;;;;;;56.25;24.48;;;;;;;9.82;100.00;100125.56;5016666;28;20450;-66
2023/03/22 01:05:48;;;;;;;41.30;20.00;;;;;;;9.68;100.00;100102.47;5019325;28;20120;-67
2023/03/22 01:08:15;;;;;;;45.08;20.52;;;;;;;9.88;100.00;100130.13;5037747;28;20029;-67
2023/03/22 01:10:41;;;;;;;39.03;18.98;;;;;;;9.76;100.00;100117.53;5036236;28;20021;-67
2023/03/22 01:13:07;;;;;;;41.00;19.17;;;;;;;9.71;100.00;100110.13;5037428;28;20035;-66
2023/03/22 01:15:33;;;;;;;36.00;18.70;;;;;;;9.81;100.00;100131.19;5032903;28;20437;-67
2023/03/22 01:17:59;;;;;;;44.20;20.00;;;;;;;9.83;100.00;100132.63;5033256;28;20179;-67
2023/03/22 01:20:25;;;;;;;37.22;18.42;;;;;;;9.61;100.00;100102.50;5037311;28;20057;-67
2023/03/22 01:22:51;;;;;;;41.00;18.95;;;;;;;9.77;100.00;100113.84;5019539;28;20030;-67
2023/03/22 01:25:17;;;;;;;48.13;20.63;;;;;;;9.73;100.00;100116.09;5036033;28;20080;-66
2023/03/22 01:27:42;;;;;;;51.85;21.10;;;;;;;9.71;100.00;100112.81;5038550;28;20506;-66
2023/03/22 01:30:08;;;;;;;55.63;22.90;;;;;;;9.76;100.00;100102.22;5022228;28;20033;-67
2023/03/22 01:32:35;;;;;;;60.30;24.67;;;;;;;9.75;100.00;100097.91;5039612;28;20033;-66
2023/03/22 01:35:01;;;;;;;67.65;25.08;;;;;;;9.72;100.00;100092.94;5019321;28;20029;-66
2023/03/22 01:37:26;;;;;;;82.13;29.65;;;;;;;9.75;100.00;100094.41;5037964;28;20032;-66
2023/03/22 01:39:55;;;;;;;100.72;33.13;;;;;;;9.66;100.00;100085.72;5019821;28;20033;-67
2023/03/22 01:42:22;;;;;;;108.55;32.58;;;;;;;9.68;100.00;100078.31;5019941;28;20041;-66
2023/03/22 01:45:12;;;;;;;149.55;37.35;;;;;;;9.59;100.00;100076.88;5036113;28;20044;-67
2023/03/22 01:47:42;;;;;;;151.68;36.85;;;;;;;9.62;100.00;100076.44;5019619;28;20030;-66
2023/03/22 01:50:08;;;;;;;140.70;35.13;;;;;;;9.50;100.00;100043.22;5035868;28;20033;-66
2023/03/22 01:52:36;;;;;;;171.02;37.00;;;;;;;9.69;100.00;100058.44;5039373;28;20056;-66
2023/03/22 01:55:05;;;;;;;145.02;34.45;;;;;;;9.69;100.00;100045.03;5009124;28;20032;-66
2023/03/22 01:57:32;;;;;;;167.25;35.70;;;;;;;9.63;100.00;100040.50;5044448;28;20017;-66
2023/03/22 01:59:58;;;;;;;138.05;33.83;;;;;;;9.67;100.00;100052.47;5025984;28;20109;-67
2023/03/22 02:02:24;;;;;;;185.70;36.83;;;;;;;9.68;100.00;100056.81;5023447;28;20048;-66
2023/03/22 02:04:49;;;;;;;244.43;40.45;;;;;;;9.59;100.00;100042.78;5036876;28;20025;-67
2023/03/22 02:07:24;;;;;;;174.82;37.67;;;;;;;9.65;100.00;100052.69;5035672;28;20033;-67
2023/03/22 02:09:51;;;;;;;182.73;35.55;;;;;;;9.68;100.00;100050.63;5037069;28;20051;-66
2023/03/22 02:12:22;;;;;;;186.27;36.70;;;;;;;9.65;100.00;100054.53;5036180;28;20026;-66
2023/03/22 02:15:10;;;;;;;279.92;37.58;;;;;;;9.66;100.00;100050.81;5032482;28;20083;-67
2023/03/22 02:18:05;;;;;;;290.60;35.97;;;;;;;9.58;100.00;100051.06;5035053;28;20025;-67
2023/03/22 02:20:52;;;;;;;225.35;36.78;;;;;;;9.64;100.00;100044.84;5036727;28;20026;-66
2023/03/22 02:23:33;;;;;;;251.52;34.42;;;;;;;9.52;100.00;100044.66;5036860;28;20037;-67
2023/03/22 02:26:17;;;;;;;274.88;35.30;;;;;;;9.51;100.00;100051.06;5036596;28;20049;-67
2023/03/22 02:28:42;;;;;;;324.40;36.20;;;;;;;9.55;100.00;100046.09;5019414;28;20447;-67
2023/03/22 02:31:45;;;;;;;180.02;33.42;;;;;;;9.54;100.00;100041.78;5036654;28;20026;-66
2023/03/22 02:34:32;;;;;;;133.32;33.15;;;;;;;9.51;100.00;100048.38;5035637;28;20028;-67
2023/03/22 02:37:12;;;;;;;139.00;31.52;;;;;;;9.50;100.00;100048.59;5036522;28;20091;-67
2023/03/22 02:39:40;;;;;;;124.30;32.13;;;;;;;9.54;100.00;100039.91;5038171;28;20064;-67
2023/03/22 02:42:22;;;;;;;107.05;32.40;;;;;;;9.61;100.00;100032.66;5037336;28;20061;-67
2023/03/22 02:45:13;;;;;;;105.03;30.73;;;;;;;9.59;100.00;100036.59;5039546;28;20076;-67
2023/03/22 02:48:01;;;;;;;93.45;30.40;;;;;;;9.64;100.00;100034.91;5040501;28;20036;-67
2023/03/22 02:50:45;;;;;;;102.30;30.75;;;;;;;9.55;100.00;100033.50;5021165;28;20040;-66
2023/03/22 02:53:19;;;;;;;110.47;31.02;;;;;;;9.56;100.00;100034.31;5038197;28;20025;-66
2023/03/22 02:55:56;;;;;;;120.70;34.30;;;;;;;9.62;100.00;100028.09;5039138;28;20021;-66
2023/03/22 02:58:27;;;;;;;109.15;33.00;;;;;;;9.58;100.00;100029.56;5051248;28;20126;-67
2023/03/22 03:01:00;;;;;;;116.63;33.40;;;;;;;9.50;100.00;100025.22;5059034;28;20117;-67
2023/03/22 03:03:28;;;;;;;119.05;33.47;;;;;;;9.57;100.00;100022.53;5059677;28;20037;-66
2023/03/22 03:06:01;;;;;;;104.63;32.47;;;;;;;9.59;100.00;100023.97;5058997;28;20036;-67
2023/03/22 03:08:29;;;;;;;103.00;32.78;;;;;;;9.58;100.00;100024.19;5059746;28;20032;-66
2023/03/22 03:10:55;;;;;;;105.63;32.63;;;;;;;9.63;100.00;100027.91;5059866;28;20029;-66
2023/03/22 03:13:20;;;;;;;103.82;33.85;;;;;;;9.67;100.00;100024.78;5042013;28;20039;-67
2023/03/22 03:15:51;;;;;;;103.03;32.72;;;;;;;9.59;100.00;100004.34;5041572;28;20524;-67
2023/03/22 03:18:34;;;;;;;102.25;32.78;;;;;;;9.70;100.00;100003.72;5042113;28;20028;-66
2023/03/22 03:21:17;;;;;;;100.70;33.13;;;;;;;9.72;100.00;100016.91;5041889;28;20032;-67
2023/03/22 03:24:12;;;;;;;102.65;33.20;;;;;;;9.70;100.00;100011.78;5059394;28;20029;-67
2023/03/22 03:27:10;;;;;;;103.57;33.38;;;;;;;9.64;100.00;100015.31;5035870;28;20057;-67
2023/03/22 03:29:50;;;;;;;106.60;34.55;;;;;;;9.64;100.00;100010.75;4989293;28;20061;-67
2023/03/22 03:32:18;;;;;;;112.25;35.75;;;;;;;9.63;100.00;99995.69;5039661;28;20025;-67
2023/03/22 03:35:06;;;;;;;117.85;35.33;;;;;;;9.58;100.00;99997.34;5039646;28;20029;-66
2023/03/22 03:37:40;;;;;;;113.75;34.78;;;;;;;9.62;100.00;99999.38;5039715;28;20033;-67
2023/03/22 03:40:11;;;;;;;114.88;35.53;;;;;;;9.64;100.00;99997.31;5040071;28;20089;-66
2023/03/22 03:42:42;;;;;;;113.90;35.78;;;;;;;9.58;100.00;99994.66;5021576;28;20021;-67
2023/03/22 03:45:09;;;;;;;129.77;36.92;;;;;;;9.59;100.00;99985.56;5039910;28;20022;-66
2023/03/22 03:47:35;;;;;;;137.85;38.00;;;;;;;9.63;100.00;99981.41;5023352;28;20021;-67
2023/03/22 03:50:03;;;;;;;130.57;38.47;;;;;;;9.61;100.00;99983.50;5040705;28;20044;-66
2023/03/22 03:52:29;;;;;;;130.05;38.20;;;;;;;9.68;100.00;99988.84;5038690;28;20040;-66
2023/03/22 03:54:54;;;;;;;154.60;39.45;;;;;;;9.65;100.00;99973.97;5002906;28;20034;-66
2023/03/22 03:57:20;;;;;;;141.10;39.55;;;;;;;9.63;100.00;99959.91;5020274;28;20022;-67
2023/03/22 03:59:46;;;;;;;126.47;37.10;;;;;;;9.64;100.00;99966.94;5038696;28;20476;-66
2023/03/22 04:02:11;;;;;;;132.23;38.78;;;;;;;9.50;100.00;99943.84;5037966;28;20030;-66
2023/03/22 04:04:37;;;;;;;118.38;37.25;;;;;;;9.59;100.00;99964.88;5004863;28;20108;-67
2023/03/22 04:07:04;;;;;;;124.85;37.95;;;;;;;9.61;100.00;99962.81;5005021;28;20033;-66
2023/03/22 04:09:32;;;;;;;121.32;38.55;;;;;;;9.65;100.00;99966.72;5018523;28;20025;-67
2023/03/22 04:11:58;;;;;;;122.03;39.00;;;;;;;9.54;100.00;99955.84;5037209;28;20052;-67
2023/03/22 04:14:25;;;;;;;117.68;36.97;;;;;;;9.59;100.00;99958.69;5021407;28;20025;-67
2023/03/22 04:16:51;;;;;;;117.95;36.83;;;;;;;9.57;100.00;99956.22;5040445;28;20026;-66
2023/03/22 04:19:18;;;;;;;107.03;36.38;;;;;;;9.54;100.00;99942.41;5020128;28;20029;-66
2023/03/22 04:21:44;;;;;;;112.57;38.10;;;;;;;9.58;100.00;99947.13;5018758;28;20021;-66
2023/03/22 04:24:10;;;;;;;112.35;36.03;;;;;;;9.56;100.00;99933.06;5038040;28;20041;-67
2023/03/22 04:26:36;;;;;;;94.70;34.67;;;;;;;9.53;100.00;99927.31;5020951;28;20050;-66
2023/03/22 04:29:02;;;;;;;106.65;35.17;;;;;;;9.54;100.00;99934.34;5038331;28;20045;-67
2023/03/22 04:31:29;;;;;;;100.47;33.97;;;;;;;9.63;100.00;99938.41;5021063;28;20136;-66
2023/03/22 04:33:55;;;;;;;95.22;34.28;;;;;;;9.62;100.00;99931.41;5037731;28;20049;-67
2023/03/22 04:36:25;;;;;;;94.80;32.83;;;;;;;9.63;100.00;99928.53;4988122;28;20036;-66
2023/03/22 04:38:50;;;;;;;89.55;32.45;;;;;;;9.65;100.00;99933.66;5037672;28;20104;-67
2023/03/22 04:41:16;;;;;;;85.90;34.17;;;;;;;9.53;100.00;99917.38;5030521;28;20068;-66
2023/03/22 04:43:45;;;;;;;99.68;34.72;;;;;;;9.61;100.00;99940.50;5023783;28;20028;-67
2023/03/22 04:46:12;;;;;;;97.85;34.90;;;;;;;9.64;100.00;99935.53;5040541;28;20032;-66
2023/03/22 04:48:39;;;;;;;90.20;34.65;;;;;;;9.56;100.00;99934.94;5058260;28;20017;-67
2023/03/22 04:51:06;;;;;;;105.57;36.15;;;;;;;9.59;100.00;99938.03;5043327;28;20087;-66
2023/03/22 04:53:32;;;;;;;85.55;32.83;;;;;;;9.48;100.00;99938.72;5038267;28;20035;-67
2023/03/22 04:55:58;;;;;;;95.90;35.50;;;;;;;9.67;100.00;99930.75;5038538;28;20112;-66
2023/03/22 04:58:24;;;;;;;106.15;36.33;;;;;;;9.50;100.00;99927.75;5038431;28;20025;-67
2023/03/22 05:00:52;;;;;;;106.80;36.50;;;;;;;9.56;100.00;99934.94;5045108;28;20400;-67
2023/03/22 05:03:21;;;;;;;103.45;35.40;;;;;;;9.51;100.00;99930.22;5063175;28;20079;-67
2023/03/22 05:05:57;;;;;;;103.75;35.88;;;;;;;9.58;100.00;99928.34;5052564;28;20440;-66
2023/03/22 05:08:24;;;;;;;127.88;39.25;;;;;;;9.62;100.00;99923.34;5039211;28;20447;-67
2023/03/22 05:10:54;;;;;;;121.60;39.22;;;;;;;9.65;100.00;99920.25;5037542;28;20028;-64
2023/03/22 05:13:21;;;;;;;116.32;37.60;;;;;;;9.58;100.00;99919.44;5057245;28;20025;-68
2023/03/22 05:15:48;;;;;;;105.03;36.38;;;;;;;9.54;100.00;99918.25;5040594;28;20403;-66
2023/03/22 05:18:21;;;;;;;104.03;36.03;;;;;;;9.53;100.00;99917.38;5075584;28;20055;-67
2023/03/22 05:20:47;;;;;;;99.78;34.47;;;;;;;9.57;100.00;99915.94;5060359;28;20129;-67
2023/03/22 05:23:18;;;;;;;96.88;34.38;;;;;;;9.54;100.00;99905.63;5078921;28;20040;-67
2023/03/22 05:25:45;;;;;;;95.32;33.97;;;;;;;9.52;100.00;99906.88;5068834;28;20076;-68
2023/03/22 05:28:13;;;;;;;100.63;34.08;;;;;;;9.61;100.00;99902.91;5039981;28;20131;-68
2023/03/22 05:30:40;;;;;;;94.25;30.83;;;;;;;9.56;100.00;99905.41;5020400;28;20025;-67
2023/03/22 05:33:06;;;;;;;94.35;33.42;;;;;;;9.54;100.00;99889.53;5020513;28;20029;-67
2023/03/22 05:35:33;;;;;;;84.30;31.75;;;;;;;9.68;100.00;99895.63;5038517;28;20446;-68
2023/03/22 05:37:59;;;;;;;83.72;31.63;;;;;;;9.75;100.00;99891.03;5046018;28;20203;-69
2023/03/22 05:40:25;;;;;;;76.72;29.50;;;;;;;9.79;100.00;99886.88;5023226;28;20099;-68
2023/03/22 05:42:51;;;;;;;75.18;28.67;;;;;;;9.75;100.00;99882.16;5019350;28;20032;-69
2023/03/22 05:45:18;;;;;;;70.20;27.50;;;;;;;9.70;100.00;99879.28;5017317;28;20045;-68
2023/03/22 05:47:44;;;;;;;76.47;28.05;;;;;;;9.82;100.00;99878.38;5019666;28;20488;-68
2023/03/22 05:50:12;;;;;;;77.70;28.30;;;;;;;9.84;100.00;99884.38;5020807;28;20081;-68
2023/03/22 05:52:37;;;;;;;70.32;26.02;;;;;;;9.87;100.00;99878.56;5038522;28;20025;-68
2023/03/22 05:55:05;;;;;;;86.95;27.20;;;;;;;9.88;100.00;99872.16;5020038;28;20029;-68
2023/03/22 05:57:31;;;;;;;70.80;26.30;;;;;;;9.95;100.00;99863.22;5037568;28;20029;-67
2023/03/22 05:59:57;;;;;;;82.78;27.00;;;;;;;9.82;100.00;99840.78;5037270;28;20036;-67
2023/03/22 06:02:23;;;;;;;91.60;27.83;;;;;;;9.89;100.00;99844.22;5019521;28;20144;-67
2023/03/22 06:04:49;;;;;;;87.80;27.83;;;;;;;9.91;100.00;99843.22;5037072;28;20051;-68
2023/03/22 06:07:14;;;;;;;88.45;27.35;;;;;;;10.00;100.00;99855.31;5027011;28;20092;-68
2023/03/22 06:09:40;;;;;;;92.43;27.73;;;;;;;9.66;100.00;99803.69;5036635;28;20455;-68
2023/03/22 06:12:06;;;;;;;85.93;27.55;;;;;;;10.11;100.00;99849.25;5039540;28;20017;-68
2023/03/22 06:14:31;;;;;;;91.70;27.27;;;;;;;10.13;100.00;99857.88;5040149;28;20075;-68
2023/03/22 06:16:56;;;;;;;95.45;28.45;;;;;;;10.16;100.00;99849.41;5057006;28;20036;-67
2023/03/22 06:19:24;;;;;;;92.70;27.38;;;;;;;10.14;100.00;99845.31;5056352;28;20379;-67
2023/03/22 06:21:51;;;;;;;87.35;28.35;;;;;;;10.19;100.00;99848.94;5038985;28;20025;-68
2023/03/22 06:24:17;;;;;;;87.78;27.35;;;;;;;10.13;100.00;99839.06;5057001;28;20518;-68
2023/03/22 06:26:44;;;;;;;89.03;27.80;;;;;;;10.19;100.00;99846.25;5040629;28;20049;-66
2023/03/22 06:29:10;;;;;;;92.97;29.63;;;;;;;10.18;100.00;99841.94;5040396;28;20044;-67
2023/03/22 06:31:36;;;;;;;89.43;28.60;;;;;;;10.15;100.00;99834.31;5038581;28;20048;-65
2023/03/22 06:34:02;;;;;;;90.57;27.45;;;;;;;10.14;100.00;99850.69;5040057;28;20041;-67
2023/03/22 06:36:28;;;;;;;75.80;26.45;;;;;;;10.16;100.00;99846.69;5056940;28;20067;-67
2023/03/22 06:38:54;;;;;;;87.32;27.83;;;;;;;10.12;100.00;99826.69;5039086;28;20033;-67
2023/03/22 06:41:19;;;;;;;84.50;28.00;;;;;;;10.20;100.00;99836.34;5057008;28;20080;-67
2023/03/22 06:43:45;;;;;;;84.93;28.40;;;;;;;10.20;100.00;99849.78;5039013;28;20047;-67
2023/03/22 06:46:10;;;;;;;78.55;27.42;;;;;;;10.16;100.00;99832.44;5056895;28;20025;-67
2023/03/22 06:48:36;;;;;;;86.13;27.75;;;;;;;10.22;100.00;99842.31;5046991;28;20026;-67
2023/03/22 06:51:01;;;;;;;80.72;27.85;;;;;;;10.30;100.00;99839.41;5036792;28;20061;-68
2023/03/22 06:53:27;;;;;;;79.90;28.05;;;;;;;10.27;100.00;99826.41;5019176;28;20036;-68
2023/03/22 06:55:52;;;;;;;88.90;29.42;;;;;;;10.37;100.00;99834.78;5042112;28;20503;-68
2023/03/22 06:58:18;;;;;;;85.30;28.92;;;;;;;10.37;100.00;99839.34;5029309;28;20048;-68
2023/03/22 07:00:43;;;;;;;89.20;26.60;;;;;;;10.35;100.00;99829.59;5027777;28;20030;-68
2023/03/22 07:03:09;;;;;;;93.85;29.67;;;;;;;10.36;100.00;99830.44;5046288;28;20031;-68
2023/03/22 07:05:34;;;;;;;96.70;29.77;;;;;;;10.35;100.00;99834.16;5026640;28;20060;-68
2023/03/22 07:07:59;;;;;;;106.38;31.65;;;;;;;10.45;100.00;99825.59;5018575;28;20153;-68
2023/03/22 07:10:25;;;;;;;114.97;32.08;;;;;;;10.46;100.00;99819.16;5003035;28;20034;-68
2023/03/22 07:12:50;;;;;;;110.50;32.47;;;;;;;10.37;100.00;99797.13;5019452;28;20033;-67
2023/03/22 07:15:16;;;;;;;108.78;32.40;;;;;;;10.42;100.00;99810.72;5019582;28;20606;-67
2023/03/22 07:17:42;;;;;;;103.80;31.92;;;;;;;10.45;100.00;99820.22;5025464;28;20535;-67
2023/03/22 07:20:08;;;;;;;103.30;33.92;;;;;;;10.37;100.00;99804.38;5029422;28;20082;-67
2023/03/22 07:22:34;;;;;;;105.50;33.35;;;;;;;10.42;100.00;99807.22;5054307;28;20037;-67
2023/03/22 07:24:59;;;;;;;105.75;32.42;;;;;;;10.48;100.00;99804.44;5031606;28;20056;-67
2023/03/22 07:27:25;;;;;;;104.05;33.22;;;;;;;10.51;100.00;99803.19;5018622;28;20037;-67
2023/03/22 07:29:50;;;;;;;103.30;33.85;;;;;;;10.45;100.00;99785.25;5038292;28;20045;-67
2023/03/22 07:32:16;;;;;;;114.03;34.20;;;;;;;10.65;100.00;99798.47;5038760;28;20056;-67
2023/03/22 07:34:41;;;;;;;116.97;34.58;;;;;;;10.58;100.00;99790.50;5021932;28;20072;-67
2023/03/22 07:37:07;;;;;;;108.43;35.40;;;;;;;10.65;100.00;99788.53;5039277;28;20476;-68
2023/03/22 07:39:33;;;;;;;113.72;35.97;;;;;;;10.50;100.00;99777.34;5038922;28;20034;-67
2023/03/22 07:41:59;;;;;;;118.78;37.45;;;;;;;10.54;100.00;99795.50;5037781;28;20108;-67
2023/03/22 07:44:25;;;;;;;128.25;37.15;;;;;;;10.50;100.00;99801.56;5037119;28;20064;-67
2023/03/22 07:46:51;;;;;;;121.97;38.65;;;;;;;10.52;100.00;99811.03;5038050;28;20036;-67
2023/03/22 07:49:17;;;;;;;135.80;39.53;;;;;;;10.50;100.00;99799.69;5038033;28;20033;-67
2023/03/22 07:51:43;;;;;;;136.85;40.83;;;;;;;10.38;100.00;99801.47;5038189;28;20104;-67
2023/03/22 07:54:08;;;;;;;145.07;41.42;;;;;;;10.37;100.00;99807.88;5037078;28;20045;-67
2023/03/22 07:56:34;;;;;;;161.63;42.92;;;;;;;10.20;100.00;99790.63;5039228;28;20457;-68
2023/03/22 07:59:00;;;;;;;156.80;42.97;;;;;;;10.37;100.00;99790.94;5034990;28;20040;-67
2023/03/22 08:01:25;;;;;;;155.63;43.70;;;;;;;10.33;100.00;99794.06;5037558;28;20025;-67
2023/03/22 08:03:51;;;;;;;157.25;45.13;;;;;;;10.30;100.00;99777.56;5039394;28;20029;-67
2023/03/22 08:06:18;;;;;;;171.85;46.20;;;;;;;10.40;100.00;99780.56;5042599;28;20040;-67
2023/03/22 08:08:44;;;;;;;174.35;48.00;;;;;;;10.43;100.00;99784.63;5044082;28;20115;-67
2023/03/22 08:11:11;;;;;;;150.55;46.85;;;;;;;10.19;100.00;99744.09;5039755;28;20524;-67
2023/03/22 08:13:37;;;;;;;176.57;51.28;;;;;;;10.57;100.00;99786.16;5037641;28;20026;-67
2023/03/22 08:16:03;;;;;;;171.48;48.83;;;;;;;10.50;100.00;99763.91;5038525;28;20117;-67
2023/03/22 08:18:28;;;;;;;173.00;50.78;;;;;;;10.60;100.00;99788.41;5039244;28;20049;-67
2023/03/22 08:20:55;;;;;;;174.02;51.00;;;;;;;10.56;100.00;99779.97;5039002;28;20025;-68
2023/03/22 08:23:22;;;;;;;181.98;54.70;;;;;;;10.57;100.00;99778.91;5038935;28;20025;-67
2023/03/22 08:25:47;;;;;;;164.15;53.00;;;;;;;10.59;100.00;99781.34;5054785;28;20049;-67
2023/03/22 08:28:14;;;;;;;177.02;53.55;;;;;;;10.47;100.00;99788.56;5058097;28;20033;-67
2023/03/22 08:30:41;;;;;;;181.00;54.38;;;;;;;10.62;100.00;99774.72;5058591;28;20028;-67
2023/03/22 08:33:07;;;;;;;186.05;56.92;;;;;;;10.63;100.00;99779.88;5040941;28;20029;-67
2023/03/22 08:35:33;;;;;;;201.23;54.47;;;;;;;10.65;100.00;99768.88;5040724;28;20032;-67
2023/03/22 08:37:58;;;;;;;205.65;56.88;;;;;;;10.64;100.00;99762.69;5024007;28;20040;-67
2023/03/22 08:40:24;;;;;;;198.98;56.42;;;;;;;10.64;100.00;99762.69;5058400;28;20420;-67
2023/03/22 08:42:50;;;;;;;181.27;54.53;;;;;;;10.69;100.00;99757.44;5041186;28;20114;-68
2023/03/22 08:45:16;;;;;;;202.57;55.85;;;;;;;10.63;100.00;99757.53;5041073;28;20032;-67
2023/03/22 08:47:42;;;;;;;195.63;55.40;;;;;;;10.69;100.00;99762.81;5039821;28;20028;-67
2023/03/22 08:50:08;;;;;;;195.68;57.78;;;;;;;10.74;100.00;99762.97;5041373;28;20035;-67
2023/03/22 08:52:34;;;;;;;182.65;56.42;;;;;;;10.75;100.00;99759.22;5037622;28;20071;-66
2023/03/22 08:54:59;;;;;;;181.88;55.45;;;;;;;10.64;100.00;99743.84;5040212;28;20029;-67
2023/03/22 08:57:26;;;;;;;205.43;59.47;;;;;;;10.60;100.00;99739.97;5057622;28;20047;-67
2023/03/22 08:59:52;;;;;;;197.00;57.75;;;;;;;10.62;100.00;99751.31;5057798;28;20029;-68
2023/03/22 09:02:18;;;;;;;192.63;58.95;;;;;;;10.61;100.00;99751.56;5038449;28;20028;-67
2023/03/22 09:04:44;;;;;;;194.43;58.20;;;;;;;10.51;100.00;99750.22;5056700;28;20064;-67
2023/03/22 09:07:09;;;;;;;184.55;58.88;;;;;;;10.52;100.00;99742.97;5039628;28;20036;-67
2023/03/22 09:09:35;;;;;;;184.90;55.40;;;;;;;10.29;100.00;99717.56;5057902;28;20075;-67
2023/03/22 09:12:00;;;;;;;188.50;57.85;;;;;;;10.31;100.00;99728.91;5057898;28;20032;-67
2023/03/22 09:14:26;;;;;;;195.43;56.58;;;;;;;10.38;100.00;99744.97;5023613;28;20040;-67
2023/03/22 09:16:51;;;;;;;183.98;56.47;;;;;;;10.30;100.00;99723.78;5037976;28;20033;-67
2023/03/22 09:19:17;;;;;;;183.75;56.95;;;;;;;10.41;100.00;99735.66;5023135;28;20025;-67
2023/03/22 09:21:42;;;;;;;193.00;55.13;;;;;;;10.27;100.00;99725.03;5057873;28;20441;-67
2023/03/22 09:24:08;;;;;;;167.50;55.17;;;;;;;10.28;100.00;99728.56;5057334;28;20044;-67
2023/03/22 09:26:33;;;;;;;155.73;51.80;;;;;;;10.27;100.00;99726.91;5058009;28;20033;-67
2023/03/22 09:28:59;;;;;;;134.32;48.53;;;;;;;10.27;100.00;99733.09;5039491;28;20106;-67
2023/03/22 09:31:25;;;;;;;128.07;44.47;;;;;;;10.23;100.00;99721.13;5039927;28;20099;-67
2023/03/22 09:33:50;;;;;;;153.75;48.65;;;;;;;10.17;100.00;99713.97;5026388;28;20029;-67
2023/03/22 09:36:16;;;;;;;169.55;49.03;;;;;;;10.31;100.00;99714.66;5045288;28;20036;-67
2023/03/22 09:38:41;;;;;;;166.65;49.33;;;;;;;10.17;100.00;99697.00;5044912;28;20036;-67
2023/03/22 09:41:36;;;;;;;179.48;50.63;;;;;;;10.21;100.00;99708.94;5063645;28;20025;-67
2023/03/22 09:44:05;;;;;;;150.43;45.33;;;;;;;10.27;100.00;99708.09;5063518;28;20243;-68
2023/03/22 09:46:42;;;;;;;118.57;38.72;;;;;;;10.18;100.00;99694.09;5063427;28;20025;-67
2023/03/22 09:49:18;;;;;;;127.20;41.05;;;;;;;10.29;100.00;99703.28;5059449;28;20075;-68
2023/03/22 09:51:46;;;;;;;121.20;38.85;;;;;;;10.21;100.00;99701.69;5058858;28;20363;-68
2023/03/22 09:54:24;;;;;;;97.25;35.50;;;;;;;10.18;100.00;99704.03;5061976;28;20096;-68
2023/03/22 09:56:57;;;;;;;101.28;35.22;;;;;;;10.24;100.00;99700.44;5044958;28;20033;-67
2023/03/22 09:59:38;;;;;;;74.03;29.98;;;;;;;10.19;100.00;99693.03;5062857;28;20025;-67
2023/03/22 10:02:22;;;;;;;82.47;32.33;;;;;;;10.29;100.00;99690.66;5062565;28;20093;-67
2023/03/22 10:05:13;;;;;;;95.00;34.50;;;;;;;10.35;100.00;99689.78;5062495;28;20051;-67
2023/03/22 10:07:50;;;;;;;102.57;35.67;;;;;;;10.47;100.00;99687.16;5062011;28;20025;-68
2023/03/22 10:10:21;;;;;;;115.82;37.40;;;;;;;10.50;100.00;99675.16;5061718;28;20028;-67
2023/03/22 10:13:12;;;;;;;103.63;36.88;;;;;;;10.74;100.00;99682.25;5060936;28;20365;-67
2023/03/22 10:15:42;;;;;;;112.60;37.97;;;;;;;10.77;100.00;99678.31;5057551;28;20021;-68
2023/03/22 10:18:15;;;;;;;109.95;37.67;;;;;;;10.77;100.00;99684.50;5039244;28;20051;-67
2023/03/22 10:20:58;;;;;;;102.22;36.63;;;;;;;10.88;100.00;99679.38;5056778;28;20055;-67
2023/03/22 10:23:36;;;;;;;97.85;36.63;;;;;;;10.92;100.00;99669.78;5056876;28;20040;-68
2023/03/22 10:26:03;;;;;;;100.45;33.08;;;;;;;10.82;100.00;99668.47;5036873;28;20053;-68
2023/03/22 10:28:37;;;;;;;110.70;35.33;;;;;;;10.95;100.00;99678.22;5057108;28;20359;-67
2023/03/22 10:31:03;;;;;;;100.32;35.15;;;;;;;10.80;100.00;99659.00;5038971;28;20054;-67
2023/03/22 10:33:38;;;;;;;96.00;33.63;;;;;;;10.82;100.00;99671.16;5056951;28;20112;-68
2023/03/22 10:36:11;;;;;;;87.80;33.28;;;;;;;10.98;100.00;99671.59;5056713;28;20074;-67
2023/03/22 10:38:53;;;;;;;100.88;34.92;;;;;;;10.96;100.00;99674.50;5056413;28;20116;-67
2023/03/22 10:41:23;;;;;;;89.53;29.85;;;;;;;11.03;100.00;99655.56;5053164;28;20025;-68
2023/03/22 10:43:52;;;;;;;93.25;33.03;;;;;;;11.10;100.00;99656.28;5037721;28;20021;-67
2023/03/22 10:46:21;;;;;;;88.55;32.70;;;;;;;10.99;100.00;99659.75;5056831;28;20086;-67
2023/03/22 10:48:50;;;;;;;95.35;31.92;;;;;;;10.98;100.00;99636.59;5055622;28;20032;-68
2023/03/22 10:52:00;;;;;;;97.50;32.58;;;;;;;11.19;100.00;99646.84;5038428;28;20041;-68
2023/03/22 10:54:26;;;;;;;87.07;29.48;;;;;;;11.29;100.00;99648.94;5053469;28;20041;-67
2023/03/22 10:56:52;;;;;;;79.65;28.23;;;;;;;11.18;100.00;99642.47;5056774;28;20028;-68
2023/03/22 10:59:54;;;;;;;85.13;30.50;;;;;;;11.17;100.00;99648.09;5038931;28;20120;-67
2023/03/22 11:02:27;;;;;;;78.03;29.58;;;;;;;11.21;100.00;99641.19;5039484;28;20035;-67
2023/03/22 11:04:56;;;;;;;88.15;29.45;;;;;;;11.04;100.00;99624.91;5066735;28;20070;-67
2023/03/22 11:07:32;;;;;;;83.00;29.27;;;;;;;11.05;100.00;99640.81;5067632;28;20051;-68
2023/03/22 11:10:06;;;;;;;81.20;29.85;;;;;;;11.05;100.00;99650.75;5050316;28;20025;-67
2023/03/22 11:12:33;;;;;;;76.72;30.15;;;;;;;11.08;100.00;99644.91;5067494;28;20047;-67
2023/03/22 11:14:58;;;;;;;84.78;31.20;;;;;;;10.97;100.00;99634.97;5067691;28;20156;-68
2023/03/22 11:17:27;;;;;;;74.68;29.88;;;;;;;11.00;100.00;99635.31;5049885;28;20021;-67